Terminal Aerodrome Forecast
Issued by NWS

Current Version | Previous Version | Text Only | Print | Product List | Glossary On
Versions: 1 2 3 4 5 6 7 8 9 10 11 12 13 14 15 16 17 18 19 20 21 22 23 24 25 26 27 28 29 30 31 32 33 34 35 36 37 38
000
FTAK31 PAFA 040329 AAC
TAFAOT
TAF AMD
PAOT 040329Z 0403/0424 29021KT 6SM BLSN FEW005 SCT030
      TEMPO 0403/0405 1SM BLSN SCT020
     FM040500 30015KT P6SM VCFG SCT025
     FM040800 31012KT P6SM SCT025 BKN100=

USA.gov is the U.S. government's official web portal to all federal, state and local government web resources and services.